KSBA/SBA METAR and TAF weather

Enter ICAO airport designator
Station Type Date Time Source
KSBA METAR 2019/08/22 03:53 UTC NOAA

KSBA 220353Z 00000KT 9SM CLR 19/17 A2975 RMK AO2 SLP073 T01890167


Station Type Date Time Source
KSBA Decoded METAR 2019/08/22 03:53 UTC NOAA

Station name not available
Aug 21, 2019 - 11:53 PM EDT / 2019.08.22 0353 UTC
Wind: Calm:0
Visibility: 9 mile(s):0
Sky conditions: clear
Temperature: 66.0 F (18.9 C)
Dew Point: 62.1 F (16.7 C)
Relative Humidity: 87%
Pressure (altimeter): 29.75 in. Hg (1007 hPa)
ob: KSBA 220353Z 00000KT 9SM CLR 19/17 A2975 RMK AO2 SLP073 T01890167
cycle: 4

Station Type Date Time Source
KSBA TAF 2019/08/21 18:46 UTC NOAA

TAF KSBA 211744Z 2118/2218 16006KT P6SM SKC
FM212100 25010KT P6SM SKC
FM220100 VRB03KT P6SM SKC
FM221400 14006KT P6SM SKC

Example: see airport list